Time;durP1;ratioP1;P1;durP2;ratioP2;P2;SDS_P1;SDS_P2;PMS_P1;PMS_P2;Temp;Humidity;BMP_temperature;BMP_pressure;BME280_temperature;BME280_humidity;BME280_pressure;Samples;Min_cycle;Max_cycle;Signal;HPM_P1;HPM_P2
2024/01/16 00:01:08;;;;;;;6.93;0.50;;;0.80;99.90;;;;;;5131129;27;20763;-89
2024/01/16 00:03:34;;;;;;;5.85;0.40;;;1.00;99.90;;;;;;5129547;27;20401;-88
2024/01/16 00:06:01;;;;;;;7.03;0.60;;;0.80;99.90;;;;;;5130591;27;20729;-87
2024/01/16 00:08:27;;;;;;;6.30;0.65;;;0.90;99.90;;;;;;5129858;27;20453;-87
2024/01/16 00:10:52;;;;;;;6.38;0.50;;;0.90;99.90;;;;;;5129536;27;20446;-88
2024/01/16 00:13:18;;;;;;;5.87;0.30;;;1.00;99.90;;;;;;5113723;27;20784;-88
2024/01/16 00:15:44;;;;;;;6.60;0.40;;;0.80;99.90;;;;;;5119622;27;20400;-87
2024/01/16 00:18:09;;;;;;;8.27;0.50;;;0.90;99.90;;;;;;5123504;27;20391;-89
2024/01/16 00:20:35;;;;;;;7.13;0.30;;;0.90;99.90;;;;;;5108912;27;20475;-88
2024/01/16 00:23:01;;;;;;;8.23;0.33;;;0.90;99.90;;;;;;5108811;27;20912;-88
2024/01/16 00:25:26;;;;;;;6.73;0.33;;;0.90;99.90;;;;;;5108981;27;20411;-88
2024/01/16 00:27:52;;;;;;;7.53;0.30;;;1.00;99.90;;;;;;5108740;27;20429;-88
2024/01/16 00:30:18;;;;;;;4.03;0.30;;;1.20;99.90;;;;;;5115865;27;20910;-88
2024/01/16 00:32:44;;;;;;;4.88;0.32;;;1.00;99.90;;;;;;5129535;27;20401;-89
2024/01/16 00:35:10;;;;;;;8.98;0.45;;;1.00;99.90;;;;;;5130008;27;20925;-88
2024/01/16 00:37:37;;;;;;;6.88;0.65;;;1.10;99.90;;;;;;5129543;27;20983;-88
2024/01/16 00:40:08;;;;;;;7.10;0.40;;;1.00;99.90;;;;;;5129650;27;20413;-88
2024/01/16 00:42:34;;;;;;;8.35;1.00;;;0.80;99.90;;;;;;5128993;27;20412;-88
2024/01/16 00:45:00;;;;;;;6.32;0.50;;;0.80;99.90;;;;;;5127919;27;20765;-88
2024/01/16 00:47:26;;;;;;;7.25;0.50;;;0.70;99.90;;;;;;5115857;27;20453;-88
2024/01/16 00:49:51;;;;;;;8.27;0.80;;;0.60;99.90;;;;;;5133111;27;20399;-88
2024/01/16 00:52:17;;;;;;;7.80;0.40;;;0.60;99.90;;;;;;5147879;27;20429;-88
2024/01/16 00:54:43;;;;;;;8.85;0.68;;;0.50;99.90;;;;;;5136551;27;20415;-88
2024/01/16 00:57:09;;;;;;;10.07;0.90;;;0.50;99.90;;;;;;5137143;27;20400;-88
2024/01/16 00:59:34;;;;;;;12.45;1.30;;;0.40;99.90;;;;;;5136204;27;20934;-89
2024/01/16 01:02:00;;;;;;;10.15;0.70;;;0.30;99.90;;;;;;5153579;27;20407;-89
2024/01/16 01:04:26;;;;;;;6.32;0.70;;;0.30;99.90;;;;;;5136818;27;20868;-89
2024/01/16 01:06:51;;;;;;;9.70;0.63;;;0.20;99.90;;;;;;5126619;27;20910;-89
2024/01/16 01:09:17;;;;;;;8.97;0.70;;;0.20;99.90;;;;;;5116687;27;20478;-88
2024/01/16 01:11:43;;;;;;;8.15;0.60;;;0.20;99.90;;;;;;5115682;27;20952;-89
2024/01/16 01:14:08;;;;;;;7.88;0.68;;;0.20;99.90;;;;;;5116590;27;20950;-88
2024/01/16 01:16:34;;;;;;;9.00;0.73;;;0.30;99.90;;;;;;5115453;27;20387;-88
2024/01/16 01:19:00;;;;;;;8.33;0.73;;;0.30;99.90;;;;;;5126452;27;20943;-89
2024/01/16 01:21:25;;;;;;;7.23;0.60;;;0.40;99.90;;;;;;5136190;27;20400;-89
2024/01/16 01:23:51;;;;;;;8.77;0.50;;;0.30;99.90;;;;;;5136164;27;20400;-88
2024/01/16 01:26:19;;;;;;;7.90;0.50;;;0.40;99.90;;;;;;5135916;27;20401;-88
2024/01/16 01:28:46;;;;;;;6.43;0.63;;;0.50;99.90;;;;;;5136231;27;20832;-88
2024/01/16 01:31:12;;;;;;;11.50;0.77;;;0.50;99.90;;;;;;5154014;27;20408;-86
2024/01/16 01:33:39;;;;;;;8.10;0.32;;;0.60;99.90;;;;;;5135718;27;20667;-87
2024/01/16 01:36:05;;;;;;;6.97;1.02;;;0.70;99.90;;;;;;5134348;27;20495;-92
2024/01/16 01:38:31;;;;;;;5.90;0.60;;;0.80;99.90;;;;;;5115515;27;20434;-88
2024/01/16 01:40:57;;;;;;;4.95;0.30;;;0.80;99.90;;;;;;5115190;27;20390;-89
2024/01/16 01:43:24;;;;;;;7.57;0.55;;;0.80;99.90;;;;;;5115740;27;20473;-89
2024/01/16 01:46:15;;;;;;;8.30;0.57;;;0.80;99.90;;;;;;5122776;27;20854;-88
2024/01/16 01:48:42;;;;;;;6.57;0.57;;;0.80;99.90;;;;;;5129777;27;20398;-88
2024/01/16 01:51:12;;;;;;;8.48;0.55;;;0.70;99.90;;;;;;5116509;27;20794;-89
2024/01/16 01:53:39;;;;;;;4.45;0.20;;;0.70;99.90;;;;;;5136270;27;20399;-88
2024/01/16 01:56:10;;;;;;;5.40;0.30;;;0.70;99.90;;;;;;5152239;27;20393;-88
2024/01/16 01:58:39;;;;;;;5.20;0.65;;;0.60;99.90;;;;;;5118728;27;20411;-88
2024/01/16 02:01:07;;;;;;;5.90;0.47;;;0.60;99.90;;;;;;5112768;27;20750;-87
2024/01/16 02:03:39;;;;;;;5.13;0.43;;;0.60;99.90;;;;;;5129006;27;20942;-87
2024/01/16 02:06:05;;;;;;;6.82;0.30;;;0.70;99.90;;;;;;5113057;27;20750;-89
2024/01/16 02:08:32;;;;;;;5.68;0.50;;;0.60;99.90;;;;;;5132457;27;20796;-89
2024/01/16 02:10:57;;;;;;;6.70;0.60;;;0.50;99.90;;;;;;5132330;27;20385;-89
2024/01/16 02:13:23;;;;;;;6.57;0.95;;;0.60;99.90;;;;;;5132764;27;20409;-87
2024/01/16 02:15:52;;;;;;;7.43;1.23;;;0.50;99.90;;;;;;5132252;27;20496;-89
2024/01/16 02:18:18;;;;;;;5.95;0.90;;;0.50;99.90;;;;;;5132586;27;20399;-89
2024/01/16 02:20:45;;;;;;;5.55;0.60;;;0.40;99.90;;;;;;5132161;27;20916;-89
2024/01/16 02:23:13;;;;;;;7.22;0.55;;;0.40;99.90;;;;;;5114992;27;20477;-89
2024/01/16 02:25:43;;;;;;;6.82;0.80;;;0.30;99.90;;;;;;5112057;27;20403;-89
2024/01/16 02:28:09;;;;;;;7.90;0.90;;;0.30;99.90;;;;;;5120596;27;21010;-88
2024/01/16 02:30:34;;;;;;;5.53;0.90;;;0.20;99.90;;;;;;5128692;27;20399;-90
2024/01/16 02:33:00;;;;;;;9.10;0.90;;;0.20;99.90;;;;;;5112362;27;20421;-88
2024/01/16 02:35:26;;;;;;;9.27;1.20;;;0.50;99.90;;;;;;5111983;27;20493;-89
2024/01/16 02:37:51;;;;;;;10.82;1.35;;;0.30;99.90;;;;;;5111613;27;20793;-88
2024/01/16 02:40:17;;;;;;;8.32;1.00;;;0.10;99.90;;;;;;5112104;27;20434;-87
2024/01/16 02:42:43;;;;;;;7.17;0.90;;;0.10;99.90;;;;;;5111946;27;20387;-88
2024/01/16 02:45:09;;;;;;;7.03;1.20;;;0.00;99.90;;;;;;5112399;27;20904;-89
2024/01/16 02:47:35;;;;;;;8.77;0.80;;;0.00;99.90;;;;;;5111416;27;20399;-89
2024/01/16 02:50:02;;;;;;;8.15;0.95;;;-0.20;99.90;;;;;;5111599;27;20406;-90
2024/01/16 02:52:28;;;;;;;6.65;0.55;;;0.00;99.90;;;;;;5111614;27;20878;-88
2024/01/16 02:54:53;;;;;;;9.70;0.98;;;0.00;99.90;;;;;;5111358;27;20399;-88
2024/01/16 02:57:20;;;;;;;6.78;0.50;;;-0.10;99.90;;;;;;5111735;27;20398;-89
2024/01/16 02:59:46;;;;;;;8.85;0.40;;;-0.10;99.90;;;;;;5111309;27;20486;-89
2024/01/16 03:02:13;;;;;;;8.53;0.40;;;-0.10;99.90;;;;;;5144629;27;20407;-89
2024/01/16 03:04:39;;;;;;;9.00;0.50;;;-0.10;99.90;;;;;;5131937;27;20401;-90
2024/01/16 03:07:05;;;;;;;7.38;0.32;;;-0.10;99.90;;;;;;5131954;27;20397;-88
2024/01/16 03:09:31;;;;;;;7.72;0.40;;;-0.10;99.90;;;;;;5131447;27;20767;-89
2024/01/16 03:11:57;;;;;;;12.23;0.77;;;0.00;99.90;;;;;;5132223;27;20741;-89
2024/01/16 03:14:23;;;;;;;6.40;0.45;;;0.30;99.90;;;;;;5131773;27;20460;-88
2024/01/16 03:16:49;;;;;;;8.05;0.73;;;-0.20;99.90;;;;;;5131832;27;20479;-89
2024/01/16 03:19:14;;;;;;;4.77;0.37;;;0.10;99.90;;;;;;5131851;27;20421;-90
2024/01/16 03:21:41;;;;;;;6.17;0.73;;;-0.20;99.90;;;;;;5131488;27;20400;-89
2024/01/16 03:24:07;;;;;;;9.25;0.40;;;-0.20;99.90;;;;;;5131989;27;20401;-89
2024/01/16 03:26:33;;;;;;;9.07;0.50;;;-0.10;99.90;;;;;;5131385;27;20436;-89
2024/01/16 03:28:59;;;;;;;6.68;0.40;;;-0.20;99.90;;;;;;5131559;27;20500;-89
2024/01/16 03:31:24;;;;;;;6.85;0.57;;;-0.20;99.90;;;;;;5141145;27;20637;-89
2024/01/16 03:33:50;;;;;;;8.27;0.40;;;-0.10;99.90;;;;;;5110814;27;20437;-89
2024/01/16 03:36:16;;;;;;;7.93;0.50;;;-0.20;99.90;;;;;;5127853;27;20755;-89
2024/01/16 03:38:45;;;;;;;7.13;0.47;;;-0.20;99.90;;;;;;5112235;27;20487;-89
2024/01/16 03:41:11;;;;;;;7.15;0.38;;;-0.20;99.90;;;;;;5111201;27;20399;-89
2024/01/16 03:43:37;;;;;;;9.23;0.30;;;-0.20;99.90;;;;;;5122124;27;20413;-89
2024/01/16 03:46:03;;;;;;;9.13;0.67;;;-0.20;99.90;;;;;;5131836;27;20913;-90
2024/01/16 03:48:29;;;;;;;9.33;0.37;;;-0.20;99.90;;;;;;5130705;27;20401;-90
2024/01/16 03:50:55;;;;;;;5.97;0.40;;;0.00;99.90;;;;;;5131141;27;20393;-90
2024/01/16 03:53:22;;;;;;;8.65;0.57;;;-0.10;99.90;;;;;;5131330;27;20397;-89
2024/01/16 03:55:49;;;;;;;10.38;0.68;;;-0.20;99.90;;;;;;5148217;27;20427;-89
2024/01/16 03:58:15;;;;;;;9.55;0.60;;;-0.10;99.90;;;;;;5148914;27;20389;-89
2024/01/16 04:00:41;;;;;;;9.07;0.70;;;-0.10;99.90;;;;;;5130539;27;20413;-90
2024/01/16 04:03:07;;;;;;;10.07;0.60;;;-0.10;99.90;;;;;;5131415;27;20553;-89
2024/01/16 04:05:33;;;;;;;7.63;0.50;;;-0.10;99.90;;;;;;5130783;27;20389;-89
2024/01/16 04:07:58;;;;;;;9.33;0.60;;;-0.10;99.90;;;;;;5130848;27;20787;-91
2024/01/16 04:10:24;;;;;;;9.63;0.60;;;0.20;99.90;;;;;;5131092;27;20397;-90
2024/01/16 04:12:50;;;;;;;9.95;0.50;;;0.00;99.90;;;;;;5148208;27;20904;-89
2024/01/16 04:15:16;;;;;;;9.90;0.45;;;0.10;99.90;;;;;;5131327;27;20400;-90
2024/01/16 04:17:41;;;;;;;9.77;0.70;;;0.10;99.90;;;;;;5130958;27;20401;-89
2024/01/16 04:20:09;;;;;;;6.93;0.57;;;0.30;99.90;;;;;;5130282;27;20512;-88
2024/01/16 04:22:34;;;;;;;7.50;0.47;;;0.10;99.90;;;;;;5147819;27;20444;-88
2024/01/16 04:25:00;;;;;;;6.90;0.47;;;0.10;99.90;;;;;;5130743;27;21013;-88
2024/01/16 04:27:26;;;;;;;9.10;0.55;;;0.40;99.90;;;;;;5130636;27;20528;-91
2024/01/16 04:29:51;;;;;;;11.75;0.65;;;0.10;99.90;;;;;;5130754;27;20408;-90
2024/01/16 04:32:17;;;;;;;8.80;0.80;;;0.20;99.90;;;;;;5131511;27;20760;-90
2024/01/16 04:34:43;;;;;;;8.23;0.80;;;0.20;99.90;;;;;;5130411;27;20389;-89
2024/01/16 04:37:09;;;;;;;11.27;0.93;;;0.30;99.90;;;;;;5130983;27;20393;-90
2024/01/16 04:39:34;;;;;;;7.80;1.10;;;0.10;99.90;;;;;;5130576;27;20477;-90
2024/01/16 04:42:00;;;;;;;11.55;1.20;;;0.30;99.90;;;;;;5130981;27;20453;-90
2024/01/16 04:44:25;;;;;;;10.65;0.98;;;0.10;99.90;;;;;;5148087;27;20404;-90
2024/01/16 04:46:51;;;;;;;9.05;0.80;;;0.10;99.90;;;;;;5130733;27;20397;-89
2024/01/16 04:49:18;;;;;;;8.27;1.03;;;0.00;99.90;;;;;;5130797;27;20425;-89
2024/01/16 04:51:43;;;;;;;7.83;0.60;;;0.10;99.90;;;;;;5130807;27;20465;-90
2024/01/16 04:54:11;;;;;;;8.85;0.63;;;0.10;99.90;;;;;;5131067;27;20939;-90
2024/01/16 04:56:37;;;;;;;5.80;0.70;;;0.20;99.90;;;;;;5130556;27;20396;-89
2024/01/16 04:59:02;;;;;;;9.97;0.60;;;0.30;99.90;;;;;;5131062;27;20985;-90
2024/01/16 05:01:28;;;;;;;5.70;0.43;;;0.50;99.90;;;;;;5130462;27;20393;-90
2024/01/16 05:03:54;;;;;;;6.93;0.90;;;0.40;99.90;;;;;;5130742;27;20884;-89
2024/01/16 05:06:20;;;;;;;6.70;0.40;;;0.30;99.90;;;;;;5130822;27;20419;-89
2024/01/16 05:08:45;;;;;;;6.33;0.53;;;0.30;99.90;;;;;;5130127;27;20389;-89
2024/01/16 05:11:11;;;;;;;8.33;0.60;;;0.40;99.90;;;;;;5130675;27;20411;-90
2024/01/16 05:13:37;;;;;;;7.53;0.50;;;0.40;99.90;;;;;;5130171;27;20489;-90
2024/01/16 05:16:02;;;;;;;9.52;0.50;;;0.50;99.90;;;;;;5131163;27;20397;-90
2024/01/16 05:18:28;;;;;;;7.23;0.43;;;0.50;99.90;;;;;;5113587;27;20398;-89
2024/01/16 05:20:55;;;;;;;8.37;0.50;;;0.50;99.90;;;;;;5137887;27;20506;-89
2024/01/16 05:23:22;;;;;;;8.00;0.50;;;0.40;99.90;;;;;;5140854;27;20403;-89
2024/01/16 05:25:47;;;;;;;9.90;0.90;;;0.40;99.90;;;;;;5109630;28;20477;-90
2024/01/16 05:28:13;;;;;;;7.03;0.50;;;0.70;99.90;;;;;;5110193;28;20438;-89
2024/01/16 05:30:39;;;;;;;6.32;0.40;;;0.70;99.90;;;;;;5109765;27;20913;-90
2024/01/16 05:33:04;;;;;;;8.70;0.60;;;0.50;99.90;;;;;;5114022;27;20907;-90
2024/01/16 05:35:30;;;;;;;5.33;0.60;;;0.60;99.90;;;;;;5131055;27;20742;-89
2024/01/16 05:37:56;;;;;;;10.70;0.70;;;0.60;99.90;;;;;;5113814;27;20929;-92
2024/01/16 05:40:22;;;;;;;8.25;1.08;;;0.50;99.90;;;;;;5112989;27;20418;-90
2024/01/16 05:42:51;;;;;;;8.13;0.75;;;0.50;99.90;;;;;;5113598;27;20490;-90
2024/01/16 05:45:17;;;;;;;7.53;0.77;;;0.50;99.90;;;;;;5112412;27;21051;-91
2024/01/16 05:47:43;;;;;;;8.45;1.20;;;0.60;99.90;;;;;;5112264;27;20398;-90
2024/01/16 05:50:09;;;;;;;8.18;0.50;;;0.50;99.90;;;;;;5113785;27;20460;-90
2024/01/16 05:52:35;;;;;;;9.30;0.65;;;0.50;99.90;;;;;;5113111;27;20810;-90
2024/01/16 05:55:02;;;;;;;7.63;0.50;;;0.50;99.90;;;;;;5113711;27;20962;-91
2024/01/16 05:57:31;;;;;;;6.07;0.30;;;0.50;99.90;;;;;;5112481;27;20402;-91
2024/01/16 05:59:57;;;;;;;8.83;0.70;;;0.50;99.90;;;;;;5113182;27;20820;-90
2024/01/16 06:02:24;;;;;;;6.72;0.65;;;0.50;99.90;;;;;;5112678;27;20437;-90
2024/01/16 06:04:50;;;;;;;7.20;0.63;;;0.60;99.90;;;;;;5112730;27;20477;-91
2024/01/16 06:07:15;;;;;;;6.20;0.60;;;0.50;99.90;;;;;;5113336;27;20386;-89
2024/01/16 06:09:42;;;;;;;8.87;0.80;;;0.40;99.90;;;;;;5112234;27;20483;-90
2024/01/16 06:12:08;;;;;;;6.35;0.60;;;0.40;99.90;;;;;;5127132;27;20407;-90
2024/01/16 06:14:34;;;;;;;6.85;0.55;;;0.50;99.90;;;;;;5126496;27;20771;-89
2024/01/16 06:17:00;;;;;;;9.70;1.10;;;0.10;99.90;;;;;;5126688;27;20407;-90
2024/01/16 06:19:26;;;;;;;6.90;0.70;;;0.40;99.90;;;;;;5108917;27;20424;-88
2024/01/16 06:21:52;;;;;;;6.97;0.80;;;0.40;99.90;;;;;;5092100;28;20457;-90
2024/01/16 06:24:18;;;;;;;10.20;1.58;;;0.40;99.90;;;;;;5092570;28;20650;-91
2024/01/16 06:26:43;;;;;;;8.52;0.85;;;0.40;99.90;;;;;;5091770;28;20813;-90
2024/01/16 06:29:09;;;;;;;11.43;0.70;;;0.40;99.90;;;;;;5093060;28;20424;-91
2024/01/16 06:31:35;;;;;;;8.07;0.80;;;0.60;99.90;;;;;;5091758;28;20479;-90
2024/01/16 06:34:00;;;;;;;9.57;0.77;;;0.50;99.90;;;;;;5109181;27;20403;-90
2024/01/16 06:36:26;;;;;;;9.77;1.05;;;0.40;99.90;;;;;;5112131;27;20391;-90
2024/01/16 06:38:52;;;;;;;8.02;0.70;;;0.60;99.90;;;;;;5112296;27;20419;-90
2024/01/16 06:41:18;;;;;;;9.85;0.70;;;0.40;99.90;;;;;;5113410;27;20403;-89
2024/01/16 06:43:44;;;;;;;9.95;1.02;;;0.40;99.90;;;;;;5131733;27;20404;-90
2024/01/16 06:46:10;;;;;;;9.15;0.70;;;0.40;99.90;;;;;;5115314;27;20394;-88
2024/01/16 06:48:37;;;;;;;11.97;1.17;;;0.30;99.90;;;;;;5111996;27;20903;-88
2024/01/16 06:51:03;;;;;;;9.77;0.85;;;0.40;99.90;;;;;;5112378;27;20541;-89
2024/01/16 06:53:29;;;;;;;9.02;0.80;;;0.40;99.90;;;;;;5111761;27;20779;-89
2024/01/16 06:55:55;;;;;;;8.40;0.68;;;0.40;99.90;;;;;;5112537;27;20536;-89
2024/01/16 06:58:20;;;;;;;6.17;0.70;;;0.40;99.90;;;;;;5111719;27;20413;-89
2024/01/16 07:00:47;;;;;;;7.77;0.50;;;0.40;99.90;;;;;;5111324;27;20922;-90
2024/01/16 07:03:13;;;;;;;9.60;0.80;;;0.40;99.90;;;;;;5128773;27;20398;-88
2024/01/16 07:05:40;;;;;;;8.63;0.75;;;0.30;99.90;;;;;;5111532;27;20394;-89
2024/01/16 07:08:07;;;;;;;12.00;1.35;;;0.30;99.90;;;;;;5111603;27;20821;-89
2024/01/16 07:10:33;;;;;;;9.20;0.77;;;0.60;99.90;;;;;;5111160;27;20490;-90
2024/01/16 07:12:59;;;;;;;9.57;0.95;;;0.30;99.90;;;;;;5111517;27;20715;-90
2024/01/16 07:15:25;;;;;;;9.95;0.60;;;0.30;99.90;;;;;;5128866;27;20395;-89
2024/01/16 07:17:51;;;;;;;7.70;0.50;;;0.30;99.90;;;;;;5111894;27;20406;-88
2024/01/16 07:20:17;;;;;;;7.43;0.70;;;0.30;99.90;;;;;;5111500;27;21024;-89
2024/01/16 07:22:43;;;;;;;9.80;0.80;;;0.50;99.90;;;;;;5111439;27;20830;-90
2024/01/16 07:25:09;;;;;;;6.72;0.40;;;0.30;99.90;;;;;;5112157;27;20409;-90
2024/01/16 07:27:35;;;;;;;7.53;0.50;;;0.30;99.90;;;;;;5111146;27;20397;-90
2024/01/16 07:30:01;;;;;;;7.73;1.00;;;0.30;99.90;;;;;;5134220;27;20491;-90
2024/01/16 07:32:27;;;;;;;7.30;0.88;;;0.30;99.90;;;;;;5131931;27;20401;-90
2024/01/16 07:34:52;;;;;;;7.28;0.52;;;0.30;99.90;;;;;;5131930;27;20416;-89
2024/01/16 07:37:18;;;;;;;7.95;0.60;;;0.30;99.90;;;;;;5131926;27;20397;-91
2024/01/16 07:39:44;;;;;;;9.50;0.90;;;0.30;99.90;;;;;;5148972;27;20448;-90
2024/01/16 07:42:10;;;;;;;8.13;0.55;;;0.30;99.90;;;;;;5132177;27;20469;-90
2024/01/16 07:44:36;;;;;;;7.93;0.57;;;0.30;99.90;;;;;;5131814;27;20393;-91
2024/01/16 07:47:02;;;;;;;8.52;0.80;;;0.30;99.90;;;;;;5132260;27;20405;-89
2024/01/16 07:49:29;;;;;;;9.77;0.88;;;0.40;99.90;;;;;;5148791;27;20750;-91
2024/01/16 07:51:54;;;;;;;7.85;0.70;;;0.40;99.90;;;;;;5132285;27;20393;-91
2024/01/16 07:54:20;;;;;;;8.07;0.70;;;0.40;99.90;;;;;;5131207;27;20496;-92
2024/01/16 07:56:46;;;;;;;6.57;0.67;;;0.40;99.90;;;;;;5149088;27;20812;-91
2024/01/16 07:59:11;;;;;;;10.47;0.67;;;0.60;99.90;;;;;;5131574;27;20421;-93
2024/01/16 08:01:37;;;;;;;6.93;0.77;;;0.50;99.90;;;;;;5131231;27;20896;-90
2024/01/16 08:04:03;;;;;;;8.57;0.60;;;0.40;99.90;;;;;;5148771;27;20441;-88
2024/01/16 08:06:29;;;;;;;7.82;0.60;;;0.60;99.90;;;;;;5131166;27;21193;-89
2024/01/16 08:08:55;;;;;;;11.17;1.10;;;0.70;99.90;;;;;;5131565;27;20397;-90
2024/01/16 08:11:21;;;;;;;9.40;0.40;;;0.70;99.90;;;;;;5130765;27;20920;-90
2024/01/16 08:13:47;;;;;;;10.20;1.00;;;0.70;99.90;;;;;;5131634;27;20412;-89
2024/01/16 08:16:13;;;;;;;10.67;0.50;;;0.70;99.90;;;;;;5148356;27;20436;-89
2024/01/16 08:18:38;;;;;;;10.27;0.40;;;0.90;99.90;;;;;;5148365;27;20577;-89
2024/01/16 08:21:04;;;;;;;8.73;0.73;;;1.20;99.90;;;;;;5131566;27;20415;-90
2024/01/16 08:23:30;;;;;;;11.90;1.33;;;0.90;99.90;;;;;;5130821;27;20416;-93
2024/01/16 08:25:55;;;;;;;10.30;0.95;;;1.00;99.90;;;;;;5131583;27;20409;-89
2024/01/16 08:28:24;;;;;;;8.35;0.50;;;1.10;99.90;;;;;;5131106;27;20393;-90
2024/01/16 08:30:49;;;;;;;13.20;0.70;;;0.90;99.90;;;;;;5131111;27;20401;-90
2024/01/16 08:33:15;;;;;;;12.13;1.77;;;0.90;99.90;;;;;;5130988;27;20743;-90
2024/01/16 08:35:40;;;;;;;13.73;1.80;;;0.90;99.90;;;;;;5131016;27;20390;-91
2024/01/16 08:38:06;;;;;;;8.33;1.10;;;1.00;99.90;;;;;;5131034;27;20397;-89
2024/01/16 08:40:32;;;;;;;10.60;0.77;;;1.00;99.90;;;;;;5130088;27;20462;-89
2024/01/16 08:42:58;;;;;;;9.77;0.60;;;1.00;99.90;;;;;;5131210;27;20412;-89
2024/01/16 08:45:25;;;;;;;6.57;0.65;;;1.00;99.90;;;;;;5130144;27;20480;-89
2024/01/16 08:47:51;;;;;;;9.43;0.60;;;1.00;99.90;;;;;;5147755;27;20433;-91
2024/01/16 08:50:17;;;;;;;10.10;0.60;;;1.10;99.90;;;;;;5109876;28;20407;-89
2024/01/16 08:52:42;;;;;;;8.17;0.50;;;1.10;99.90;;;;;;5126798;28;20511;-89
2024/01/16 08:55:11;;;;;;;7.97;0.40;;;1.20;99.90;;;;;;5110356;28;20743;-89
2024/01/16 08:57:37;;;;;;;6.50;0.40;;;1.10;99.90;;;;;;5110110;28;20481;-89
2024/01/16 09:00:08;;;;;;;7.78;0.50;;;1.10;99.90;;;;;;5110377;28;20427;-91
2024/01/16 09:02:35;;;;;;;7.82;0.50;;;1.00;99.90;;;;;;5110145;28;20770;-89
2024/01/16 09:05:00;;;;;;;9.05;0.50;;;1.00;99.90;;;;;;5110176;28;20402;-89
2024/01/16 09:07:27;;;;;;;9.05;0.45;;;1.00;99.90;;;;;;5112483;27;20730;-89
2024/01/16 09:09:53;;;;;;;7.97;0.55;;;1.10;99.90;;;;;;5113967;27;20403;-90
2024/01/16 09:12:19;;;;;;;5.72;0.30;;;1.00;99.90;;;;;;5113921;27;20913;-90
2024/01/16 09:14:45;;;;;;;6.72;0.40;;;1.00;99.90;;;;;;5114047;27;20438;-89
2024/01/16 09:17:10;;;;;;;6.17;0.30;;;1.00;99.90;;;;;;5114043;27;20431;-88
2024/01/16 09:19:36;;;;;;;7.17;0.50;;;1.00;99.90;;;;;;5113438;27;20506;-89
2024/01/16 09:22:03;;;;;;;8.17;0.20;;;1.00;99.90;;;;;;5114270;27;20773;-89
2024/01/16 09:24:28;;;;;;;5.47;0.40;;;1.00;99.90;;;;;;5113275;27;20410;-89
2024/01/16 09:26:54;;;;;;;4.45;0.22;;;1.10;99.90;;;;;;5130848;27;20410;-89
2024/01/16 09:29:21;;;;;;;6.85;0.30;;;1.20;99.90;;;;;;5113506;27;20473;-91
2024/01/16 09:31:47;;;;;;;4.32;0.20;;;1.40;99.90;;;;;;5114088;27;20406;-89
2024/01/16 09:34:13;;;;;;;5.00;0.20;;;1.60;99.90;;;;;;5113494;27;20927;-90
2024/01/16 09:36:40;;;;;;;4.10;0.15;;;1.80;99.90;;;;;;5113408;27;20400;-90
2024/01/16 09:39:10;;;;;;;4.05;0.20;;;1.90;99.90;;;;;;5113962;27;20422;-90
2024/01/16 09:41:36;;;;;;;4.73;0.30;;;2.00;99.90;;;;;;5113451;27;20566;-91
2024/01/16 09:44:02;;;;;;;3.87;0.27;;;2.10;99.90;;;;;;5113849;27;20495;-90
2024/01/16 09:46:30;;;;;;;3.40;0.20;;;2.20;99.90;;;;;;5112927;27;20399;-91
2024/01/16 09:48:57;;;;;;;5.07;0.20;;;2.40;99.90;;;;;;5113444;27;20897;-90
2024/01/16 09:51:23;;;;;;;3.63;0.30;;;2.40;99.90;;;;;;5113708;27;20402;-89
2024/01/16 09:53:48;;;;;;;4.65;0.40;;;2.30;99.90;;;;;;5113426;27;20439;-91
2024/01/16 09:56:16;;;;;;;4.10;0.30;;;2.20;99.90;;;;;;5114044;27;20485;-91
2024/01/16 09:58:43;;;;;;;3.25;0.30;;;2.10;99.90;;;;;;5113186;27;20403;-90
2024/01/16 10:01:11;;;;;;;3.80;0.40;;;2.00;99.90;;;;;;5114109;27;20833;-89
2024/01/16 10:03:38;;;;;;;4.10;0.20;;;2.10;99.90;;;;;;5115969;27;20385;-90
2024/01/16 10:06:05;;;;;;;3.00;0.30;;;1.80;99.90;;;;;;5133887;27;20396;-90
2024/01/16 10:08:31;;;;;;;4.40;0.38;;;1.80;99.90;;;;;;5133846;27;20445;-90
2024/01/16 10:10:58;;;;;;;4.97;0.40;;;1.80;99.90;;;;;;5150444;27;20400;-92
2024/01/16 10:13:23;;;;;;;4.22;0.30;;;1.80;99.90;;;;;;5133647;27;20397;-89
2024/01/16 10:15:52;;;;;;;4.15;0.40;;;1.80;99.90;;;;;;5150244;27;20393;-90
2024/01/16 10:18:30;;;;;;;5.70;0.52;;;2.10;99.90;;;;;;5132840;27;20458;-90
2024/01/16 10:20:56;;;;;;;6.30;0.40;;;1.80;99.90;;;;;;5132419;27;20443;-90
2024/01/16 10:23:26;;;;;;;5.93;0.70;;;1.90;99.90;;;;;;5115395;27;20413;-89
2024/01/16 10:26:10;;;;;;;4.05;0.50;;;1.90;99.90;;;;;;5129328;27;20403;-89
2024/01/16 10:28:40;;;;;;;6.80;0.80;;;2.00;99.90;;;;;;5112094;27;20407;-90
2024/01/16 10:31:15;;;;;;;5.03;0.90;;;2.00;99.90;;;;;;5119239;27;20396;-89
2024/01/16 10:33:41;;;;;;;3.97;1.30;;;2.10;99.90;;;;;;5112093;27;20443;-89
2024/01/16 10:36:18;;;;;;;7.20;1.30;;;2.10;99.90;;;;;;5091776;28;20408;-89
2024/01/16 10:38:45;;;;;;;7.70;1.40;;;2.00;99.90;;;;;;5091629;28;20400;-88
2024/01/16 10:41:13;;;;;;;7.00;1.50;;;2.00;99.90;;;;;;5091476;28;20427;-90
2024/01/16 10:43:39;;;;;;;6.80;1.45;;;1.90;99.90;;;;;;5092298;28;21100;-89
2024/01/16 10:46:12;;;;;;;8.13;1.63;;;2.10;99.90;;;;;;5090947;28;20396;-88
2024/01/16 10:48:38;;;;;;;6.43;1.80;;;2.00;99.90;;;;;;5091705;28;20408;-90
2024/01/16 10:51:07;;;;;;;4.43;1.30;;;2.20;99.90;;;;;;5091516;28;20396;-89
2024/01/16 10:53:35;;;;;;;4.00;1.42;;;2.00;99.90;;;;;;5126074;27;20402;-88
2024/01/16 10:56:02;;;;;;;3.53;1.38;;;2.00;99.90;;;;;;5128900;27;20444;-88
2024/01/16 10:58:31;;;;;;;3.07;1.80;;;2.00;99.90;;;;;;5111734;27;20498;-89
2024/01/16 11:01:03;;;;;;;4.72;1.73;;;1.90;99.90;;;;;;5111052;27;20422;-89
2024/01/16 11:03:40;;;;;;;5.20;1.67;;;2.00;99.90;;;;;;5094857;27;20407;-90
2024/01/16 11:06:07;;;;;;;6.30;2.10;;;1.90;99.90;;;;;;5111882;27;20410;-90
2024/01/16 11:08:37;;;;;;;4.17;1.43;;;2.00;99.90;;;;;;5111352;27;20406;-89
2024/01/16 11:11:04;;;;;;;4.90;1.77;;;2.00;99.90;;;;;;5111568;27;20407;-89
2024/01/16 11:13:34;;;;;;;6.03;1.77;;;2.00;99.90;;;;;;5111309;27;20922;-89
2024/01/16 11:16:01;;;;;;;4.53;2.30;;;2.20;99.90;;;;;;5111444;27;20425;-90
2024/01/16 11:18:29;;;;;;;6.35;1.83;;;1.90;99.90;;;;;;5104090;27;20407;-90
2024/01/16 11:20:56;;;;;;;6.35;1.85;;;1.90;99.90;;;;;;5110129;27;20419;-87
2024/01/16 11:23:22;;;;;;;6.18;1.48;;;1.90;99.90;;;;;;5110613;27;20920;-93
2024/01/16 11:25:47;;;;;;;6.57;1.80;;;1.80;99.90;;;;;;5136907;27;20898;-89
2024/01/16 11:28:14;;;;;;;5.77;1.97;;;1.80;99.90;;;;;;5131398;27;20454;-91
2024/01/16 11:30:40;;;;;;;8.50;2.10;;;1.70;99.90;;;;;;5131388;27;20457;-92
2024/01/16 11:33:06;;;;;;;8.80;1.33;;;1.70;99.90;;;;;;5132098;27;20393;-90
2024/01/16 11:35:33;;;;;;;7.27;1.20;;;1.70;99.90;;;;;;5132141;27;20896;-90
2024/01/16 11:38:15;;;;;;;7.82;1.35;;;1.70;99.90;;;;;;5138262;27;20771;-89
2024/01/16 11:40:40;;;;;;;6.32;1.08;;;1.70;99.90;;;;;;5111119;27;20774;-90
2024/01/16 11:43:34;;;;;;;9.35;1.30;;;1.60;99.90;;;;;;5111131;27;20394;-90
2024/01/16 11:46:07;;;;;;;7.95;0.98;;;1.60;99.90;;;;;;5111115;27;20406;-89
2024/01/16 11:48:33;;;;;;;11.57;1.17;;;1.60;99.90;;;;;;5111041;27;20407;-90
2024/01/16 11:51:00;;;;;;;6.80;0.90;;;1.60;99.90;;;;;;5110442;27;20422;-90
2024/01/16 11:53:40;;;;;;;10.98;1.20;;;1.50;99.90;;;;;;5103290;27;20899;-89
2024/01/16 11:56:24;;;;;;;10.27;1.10;;;1.50;99.90;;;;;;5107113;28;20413;-89
2024/01/16 11:59:08;;;;;;;9.45;1.15;;;1.70;99.90;;;;;;5111717;27;20766;-89
2024/01/16 12:01:36;;;;;;;7.05;1.25;;;1.90;99.90;;;;;;5123614;27;20415;-90
2024/01/16 12:04:05;;;;;;;4.97;0.70;;;2.20;99.90;;;;;;5124863;27;20412;-88
2024/01/16 12:06:32;;;;;;;6.82;1.00;;;2.60;99.90;;;;;;5121958;27;20431;-89
2024/01/16 12:09:17;;;;;;;8.18;0.70;;;3.00;99.90;;;;;;5126293;27;20499;-88
2024/01/16 12:11:55;;;;;;;6.40;0.80;;;3.40;99.90;;;;;;5108866;27;20406;-88
2024/01/16 12:14:20;;;;;;;4.72;0.52;;;3.80;99.90;;;;;;5106676;27;20403;-88
2024/01/16 12:16:46;;;;;;;4.47;0.68;;;4.10;99.90;;;;;;5103490;28;20453;-88
2024/01/16 12:19:13;;;;;;;6.07;0.63;;;4.20;99.90;;;;;;5123422;27;20427;-90
2024/01/16 12:21:44;;;;;;;5.72;0.70;;;4.20;99.90;;;;;;5088534;28;20407;-89
2024/01/16 12:24:10;;;;;;;5.47;1.10;;;4.20;99.90;;;;;;5106290;28;20447;-89
2024/01/16 12:26:36;;;;;;;6.53;1.30;;;4.10;99.90;;;;;;5088585;28;20405;-89
2024/01/16 12:29:02;;;;;;;6.32;1.13;;;4.20;99.90;;;;;;5105827;27;20489;-88
2024/01/16 12:31:29;;;;;;;4.70;1.20;;;4.30;99.90;;;;;;5110108;27;20533;-88
2024/01/16 12:34:11;;;;;;;5.93;1.90;;;4.30;99.90;;;;;;5109002;27;20394;-88
2024/01/16 12:36:37;;;;;;;7.75;1.98;;;4.10;99.90;;;;;;5088770;28;20408;-89
2024/01/16 12:39:04;;;;;;;8.45;2.20;;;4.10;99.90;;;;;;5088482;28;20432;-88
2024/01/16 12:41:36;;;;;;;7.28;1.77;;;4.10;99.90;;;;;;5116509;27;21200;-89
2024/01/16 12:44:03;;;;;;;7.82;2.03;;;4.00;99.90;;;;;;5109702;27;20421;-89
2024/01/16 12:46:28;;;;;;;9.70;3.42;;;4.10;99.90;;;;;;5110654;27;20818;-90
2024/01/16 12:49:03;;;;;;;8.32;2.83;;;4.10;99.90;;;;;;5147555;27;20478;-89
2024/01/16 12:51:29;;;;;;;9.95;3.00;;;4.60;99.90;;;;;;5147227;27;20393;-89
2024/01/16 12:54:10;;;;;;;11.13;3.20;;;4.60;99.90;;;;;;5129803;27;20396;-89